ROA2039 SVMI-TFFF
Flight info
| Callsign | ROA2039 |
|---|---|
| Flight time | 1h 6m |
| Altitude | 35000 |
| Route | SOSKA2 OPUTU UA551 ONGAL/N0401F230 A551 SOMON SOMON2X |
| Aircraft | B77W/H-SDE1E2E3FGHIJ2J3J4J5M1RWXY/LB1D1 |
Departure
| Time | 2026-04-26 22:09 |
|---|---|
| Airport | Maiquetía Simón Bolívar International Airport (SVMI) |
Arrival
| Time | 2026-04-26 23:15 |
|---|---|
| Airport | Martinique Aimé Césaire International Airport (TFFF) |
| Time | Latitude | Longitude | Altitude | Speed | Heading |
|---|---|---|---|---|---|
| 2026-04-26 21:23 | 10.59829 | -67.00675 | 241 ft | 0 kts | 178° |
| 2026-04-26 21:31 | 10.59831 | -67.00675 | 236 ft | 0 kts | 178° |
| 2026-04-26 21:32 | 10.59829 | -67.00675 | 236 ft | 0 kts | 178° |
| 2026-04-26 21:57 | 10.59843 | -67.00675 | 236 ft | 4 kts | 178° |
| 2026-04-26 21:57 | 10.59870 | -67.00676 | 236 ft | 4 kts | 178° |
| 2026-04-26 21:57 | 10.59892 | -67.00677 | 236 ft | 4 kts | 182° |
| 2026-04-26 21:57 | 10.59912 | -67.00670 | 239 ft | 4 kts | 248° |
| 2026-04-26 21:58 | 10.59915 | -67.00646 | 236 ft | 4 kts | 268° |
| 2026-04-26 21:58 | 10.59916 | -67.00627 | 235 ft | 0 kts | 268° |
| 2026-04-26 22:02 | 10.59915 | -67.00653 | 236 ft | 6 kts | 268° |
| 2026-04-26 22:02 | 10.59914 | -67.00693 | 236 ft | 6 kts | 268° |
| 2026-04-26 22:03 | 10.59912 | -67.00733 | 237 ft | 6 kts | 268° |
| 2026-04-26 22:03 | 10.59911 | -67.00779 | 238 ft | 7 kts | 268° |
| 2026-04-26 22:03 | 10.59909 | -67.00859 | 239 ft | 15 kts | 268° |
| 2026-04-26 22:03 | 10.59906 | -67.00966 | 241 ft | 15 kts | 268° |
| 2026-04-26 22:04 | 10.59901 | -67.01072 | 243 ft | 15 kts | 267° |
| 2026-04-26 22:04 | 10.59898 | -67.01152 | 245 ft | 7 kts | 267° |
| 2026-04-26 22:04 | 10.59895 | -67.01201 | 245 ft | 4 kts | 267° |
| 2026-04-26 22:04 | 10.59913 | -67.01222 | 246 ft | 5 kts | 338° |
| 2026-04-26 22:05 | 10.59945 | -67.01231 | 246 ft | 5 kts | 348° |
| 2026-04-26 22:05 | 10.59981 | -67.01237 | 246 ft | 5 kts | 352° |
| 2026-04-26 22:05 | 10.60021 | -67.01240 | 246 ft | 7 kts | 356° |
| 2026-04-26 22:05 | 10.60066 | -67.01242 | 246 ft | 0 kts | 358° |
| 2026-04-26 22:06 | 10.60070 | -67.01243 | 246 ft | 3 kts | 358° |
| 2026-04-26 22:06 | 10.60090 | -67.01243 | 246 ft | 2 kts | 358° |
| 2026-04-26 22:06 | 10.60144 | -67.01246 | 245 ft | 16 kts | 358° |
| 2026-04-26 22:06 | 10.60184 | -67.01247 | 243 ft | 0 kts | 358° |
| 2026-04-26 22:07 | 10.60208 | -67.01233 | 242 ft | 5 kts | 62° |
| 2026-04-26 22:07 | 10.60213 | -67.01210 | 241 ft | 5 kts | 81° |
| 2026-04-26 22:07 | 10.60215 | -67.01176 | 240 ft | 0 kts | 87° |
| 2026-04-26 22:08 | 10.60226 | -67.00874 | 235 ft | 90 kts | 88° |
| 2026-04-26 22:09 | 10.60255 | -66.99962 | 223 ft | 168 kts | 88° |
| 2026-04-26 22:09 | 10.60285 | -66.98624 | 576 ft | 196 kts | 88° |
| 2026-04-26 22:09 | 10.60301 | -66.97238 | 1504 ft | 195 kts | 86° |
| 2026-04-26 22:09 | 10.60512 | -66.95869 | 2338 ft | 199 kts | 74° |
| 2026-04-26 22:10 | 10.60887 | -66.94440 | 2777 ft | 224 kts | 74° |
| 2026-04-26 22:10 | 10.61277 | -66.92789 | 3160 ft | 252 kts | 76° |
| 2026-04-26 22:10 | 10.61651 | -66.91010 | 3959 ft | 263 kts | 77° |
| 2026-04-26 22:10 | 10.62020 | -66.89158 | 4866 ft | 271 kts | 78° |
| 2026-04-26 22:11 | 10.62364 | -66.87260 | 5852 ft | 275 kts | 79° |
| 2026-04-26 22:11 | 10.62702 | -66.85337 | 6833 ft | 278 kts | 79° |
| 2026-04-26 22:11 | 10.63041 | -66.83388 | 7768 ft | 282 kts | 79° |
| 2026-04-26 22:11 | 10.63385 | -66.81409 | 8684 ft | 286 kts | 79° |
| 2026-04-26 22:12 | 10.63733 | -66.79402 | 9578 ft | 290 kts | 79° |
| 2026-04-26 22:12 | 10.64087 | -66.77364 | 10445 ft | 297 kts | 79° |
| 2026-04-26 22:12 | 10.64457 | -66.75236 | 10971 ft | 318 kts | 79° |
| 2026-04-26 22:12 | 10.64864 | -66.72897 | 11014 ft | 354 kts | 79° |
| 2026-04-26 22:13 | 10.65305 | -66.70358 | 11485 ft | 370 kts | 79° |
| 2026-04-26 22:13 | 10.65753 | -66.67769 | 12555 ft | 373 kts | 79° |
| 2026-04-26 22:13 | 10.66198 | -66.65191 | 13624 ft | 377 kts | 79° |
| 2026-04-26 22:13 | 10.66655 | -66.62548 | 14617 ft | 383 kts | 79° |
| 2026-04-26 22:14 | 10.67121 | -66.59853 | 15527 ft | 390 kts | 79° |
| 2026-04-26 22:14 | 10.67595 | -66.57116 | 15964 ft | 395 kts | 79° |
| 2026-04-26 22:14 | 10.68073 | -66.54350 | 15936 ft | 397 kts | 79° |
| 2026-04-26 22:14 | 10.68550 | -66.51589 | 15937 ft | 395 kts | 79° |
| 2026-04-26 22:15 | 10.69156 | -66.48890 | 15948 ft | 391 kts | 69° |
| 2026-04-26 22:15 | 10.70316 | -66.46360 | 16652 ft | 398 kts | 62° |
| 2026-04-26 22:15 | 10.71588 | -66.43837 | 17612 ft | 402 kts | 62° |
| 2026-04-26 22:15 | 10.72853 | -66.41289 | 18583 ft | 406 kts | 63° |
| 2026-04-26 22:16 | 10.74111 | -66.38701 | 19453 ft | 411 kts | 63° |
| 2026-04-26 22:16 | 10.75373 | -66.36062 | 20278 ft | 417 kts | 63° |
| 2026-04-26 22:16 | 10.76641 | -66.33387 | 21098 ft | 423 kts | 64° |
| 2026-04-26 22:16 | 10.77922 | -66.30672 | 21893 ft | 428 kts | 64° |
| 2026-04-26 22:17 | 10.79202 | -66.27962 | 22645 ft | 433 kts | 64° |
| 2026-04-26 22:17 | 10.80514 | -66.25185 | 23366 ft | 438 kts | 64° |
| 2026-04-26 22:17 | 10.81941 | -66.22440 | 23949 ft | 441 kts | 55° |
| 2026-04-26 22:17 | 10.84058 | -66.20176 | 24486 ft | 445 kts | 36° |
| 2026-04-26 22:18 | 10.86611 | -66.18386 | 25026 ft | 449 kts | 34° |
| 2026-04-26 22:18 | 10.89182 | -66.16545 | 25629 ft | 454 kts | 35° |
| 2026-04-26 22:18 | 10.91756 | -66.14654 | 26301 ft | 457 kts | 36° |
| 2026-04-26 22:18 | 10.94336 | -66.12734 | 26941 ft | 461 kts | 36° |
| 2026-04-26 22:19 | 10.96928 | -66.10795 | 27526 ft | 465 kts | 36° |
| 2026-04-26 22:19 | 10.99553 | -66.08828 | 28068 ft | 470 kts | 36° |
| 2026-04-26 22:19 | 11.02164 | -66.06870 | 28585 ft | 474 kts | 36° |
| 2026-04-26 22:19 | 11.04830 | -66.04874 | 29097 ft | 478 kts | 36° |
| 2026-04-26 22:20 | 11.07517 | -66.02863 | 29594 ft | 482 kts | 36° |
| 2026-04-26 22:20 | 11.10231 | -66.00832 | 30070 ft | 485 kts | 36° |
| 2026-04-26 22:20 | 11.12955 | -65.98793 | 30521 ft | 488 kts | 36° |
| 2026-04-26 22:20 | 11.15706 | -65.96735 | 30944 ft | 491 kts | 36° |
| 2026-04-26 22:21 | 11.18469 | -65.94667 | 31398 ft | 493 kts | 36° |
| 2026-04-26 22:21 | 11.21229 | -65.92600 | 31933 ft | 491 kts | 36° |
| 2026-04-26 22:21 | 11.23981 | -65.90538 | 32522 ft | 489 kts | 36° |
| 2026-04-26 22:21 | 11.26716 | -65.88489 | 33073 ft | 488 kts | 36° |
| 2026-04-26 22:22 | 11.29448 | -65.86441 | 33581 ft | 487 kts | 36° |
| 2026-04-26 22:22 | 11.32176 | -65.84396 | 34063 ft | 486 kts | 36° |
| 2026-04-26 22:22 | 11.34896 | -65.82357 | 34537 ft | 485 kts | 36° |
| 2026-04-26 22:22 | 11.37583 | -65.80341 | 34949 ft | 486 kts | 36° |
| 2026-04-26 22:23 | 11.43036 | -65.76197 | 34935 ft | 488 kts | 40° |
| 2026-04-26 22:23 | 11.45315 | -65.73670 | 34927 ft | 483 kts | 54° |
| 2026-04-26 22:23 | 11.47188 | -65.70817 | 34927 ft | 485 kts | 56° |
| 2026-04-26 22:24 | 11.50885 | -65.65041 | 34935 ft | 488 kts | 56° |
| 2026-04-26 22:24 | 11.54680 | -65.59296 | 34941 ft | 489 kts | 55° |
| 2026-04-26 22:25 | 11.58538 | -65.53571 | 34935 ft | 490 kts | 55° |
| 2026-04-26 22:25 | 11.62394 | -65.47850 | 34933 ft | 489 kts | 55° |
| 2026-04-26 22:26 | 11.66231 | -65.42143 | 34934 ft | 487 kts | 55° |
| 2026-04-26 22:26 | 11.70087 | -65.36467 | 34934 ft | 486 kts | 54° |
| 2026-04-26 22:27 | 11.73997 | -65.30840 | 34935 ft | 485 kts | 54° |
| 2026-04-26 22:27 | 11.77873 | -65.25263 | 34935 ft | 484 kts | 54° |
| 2026-04-26 22:28 | 11.81759 | -65.19649 | 34935 ft | 484 kts | 54° |
| 2026-04-26 22:28 | 11.85641 | -65.14028 | 34936 ft | 484 kts | 54° |
| 2026-04-26 22:29 | 11.89522 | -65.08403 | 34943 ft | 484 kts | 54° |
| 2026-04-26 22:29 | 11.93405 | -65.02775 | 34935 ft | 485 kts | 54° |
| 2026-04-26 22:30 | 11.97287 | -64.97144 | 34934 ft | 485 kts | 54° |
| 2026-04-26 22:30 | 12.01175 | -64.91502 | 34935 ft | 485 kts | 54° |
| 2026-04-26 22:31 | 12.05063 | -64.85855 | 34940 ft | 486 kts | 54° |
| 2026-04-26 22:31 | 12.08949 | -64.80210 | 34934 ft | 486 kts | 54° |
| 2026-04-26 22:32 | 12.12834 | -64.74561 | 34934 ft | 486 kts | 54° |
| 2026-04-26 22:32 | 12.16696 | -64.68944 | 34935 ft | 486 kts | 54° |
| 2026-04-26 22:33 | 12.22524 | -64.60459 | 34935 ft | 486 kts | 54° |
| 2026-04-26 22:34 | 12.26401 | -64.54811 | 34935 ft | 485 kts | 54° |
| 2026-04-26 22:34 | 12.30281 | -64.49154 | 34935 ft | 485 kts | 54° |
| 2026-04-26 22:35 | 12.34155 | -64.43504 | 34935 ft | 485 kts | 54° |
| 2026-04-26 22:35 | 12.38020 | -64.37842 | 34935 ft | 485 kts | 54° |
| 2026-04-26 22:36 | 12.41859 | -64.32152 | 34935 ft | 485 kts | 55° |
| 2026-04-26 22:36 | 12.45662 | -64.26505 | 34935 ft | 485 kts | 55° |
| 2026-04-26 22:37 | 12.49495 | -64.20816 | 34935 ft | 485 kts | 55° |
| 2026-04-26 22:37 | 12.53332 | -64.15124 | 34935 ft | 485 kts | 55° |
| 2026-04-26 22:38 | 12.57162 | -64.09437 | 34935 ft | 485 kts | 55° |
| 2026-04-26 22:38 | 12.60990 | -64.03751 | 34935 ft | 485 kts | 55° |
| 2026-04-26 22:39 | 12.64822 | -63.98055 | 34935 ft | 485 kts | 55° |
| 2026-04-26 22:39 | 12.68654 | -63.92355 | 34935 ft | 485 kts | 55° |
| 2026-04-26 22:40 | 12.72453 | -63.86699 | 34935 ft | 485 kts | 55° |
| 2026-04-26 22:40 | 12.76276 | -63.81005 | 34935 ft | 485 kts | 55° |
| 2026-04-26 22:41 | 12.80104 | -63.75301 | 34935 ft | 485 kts | 55° |
| 2026-04-26 22:41 | 12.83943 | -63.69599 | 34939 ft | 485 kts | 55° |
| 2026-04-26 22:42 | 12.87771 | -63.63906 | 34935 ft | 485 kts | 55° |
| 2026-04-26 22:42 | 12.91545 | -63.58219 | 34935 ft | 485 kts | 55° |
| 2026-04-26 22:43 | 12.95331 | -63.52488 | 34935 ft | 485 kts | 55° |
| 2026-04-26 22:43 | 12.99117 | -63.46762 | 34935 ft | 485 kts | 55° |
| 2026-04-26 22:44 | 13.02906 | -63.41034 | 34935 ft | 485 kts | 55° |
| 2026-04-26 22:44 | 13.06690 | -63.35310 | 34935 ft | 485 kts | 55° |
| 2026-04-26 22:45 | 13.10478 | -63.29576 | 34935 ft | 485 kts | 55° |
| 2026-04-26 22:45 | 13.14264 | -63.23842 | 34935 ft | 485 kts | 55° |
| 2026-04-26 22:46 | 13.18047 | -63.18107 | 34935 ft | 485 kts | 55° |
| 2026-04-26 22:46 | 13.21805 | -63.12406 | 34935 ft | 485 kts | 55° |
| 2026-04-26 22:47 | 13.25585 | -63.06671 | 34935 ft | 485 kts | 55° |
| 2026-04-26 22:47 | 13.29373 | -63.00940 | 34935 ft | 485 kts | 55° |
| 2026-04-26 22:48 | 13.33164 | -62.95210 | 34935 ft | 485 kts | 55° |
| 2026-04-26 22:48 | 13.36952 | -62.89475 | 34935 ft | 485 kts | 55° |
| 2026-04-26 22:49 | 13.40735 | -62.83743 | 34930 ft | 482 kts | 55° |
| 2026-04-26 22:49 | 13.42593 | -62.80926 | 34737 ft | 471 kts | 55° |
| 2026-04-26 22:49 | 13.44414 | -62.78164 | 34429 ft | 463 kts | 55° |
| 2026-04-26 22:49 | 13.46198 | -62.75457 | 34220 ft | 453 kts | 55° |
| 2026-04-26 22:50 | 13.47946 | -62.72804 | 33952 ft | 444 kts | 55° |
| 2026-04-26 22:50 | 13.49668 | -62.70189 | 33555 ft | 439 kts | 55° |
| 2026-04-26 22:50 | 13.51374 | -62.67600 | 33063 ft | 437 kts | 55° |
| 2026-04-26 22:50 | 13.53073 | -62.65019 | 32552 ft | 435 kts | 55° |
| 2026-04-26 22:51 | 13.54763 | -62.62452 | 32075 ft | 432 kts | 55° |
| 2026-04-26 22:51 | 13.56440 | -62.59904 | 31631 ft | 429 kts | 55° |
| 2026-04-26 22:51 | 13.58103 | -62.57375 | 31204 ft | 425 kts | 55° |
| 2026-04-26 22:51 | 13.59754 | -62.54864 | 30773 ft | 422 kts | 55° |
| 2026-04-26 22:52 | 13.61369 | -62.52408 | 30340 ft | 419 kts | 55° |
| 2026-04-26 22:52 | 13.62994 | -62.49935 | 29899 ft | 416 kts | 55° |
| 2026-04-26 22:52 | 13.64609 | -62.47478 | 29457 ft | 413 kts | 55° |
| 2026-04-26 22:52 | 13.66213 | -62.45036 | 29026 ft | 410 kts | 55° |
| 2026-04-26 22:53 | 13.67804 | -62.42612 | 28605 ft | 408 kts | 55° |
| 2026-04-26 22:53 | 13.69384 | -62.40206 | 28183 ft | 405 kts | 55° |
| 2026-04-26 22:53 | 13.70954 | -62.37814 | 27761 ft | 402 kts | 55° |
| 2026-04-26 22:53 | 13.72513 | -62.35437 | 27340 ft | 399 kts | 55° |
| 2026-04-26 22:54 | 13.74063 | -62.33073 | 26922 ft | 397 kts | 55° |
| 2026-04-26 22:54 | 13.75601 | -62.30729 | 26509 ft | 394 kts | 55° |
| 2026-04-26 22:54 | 13.77130 | -62.28397 | 26098 ft | 391 kts | 55° |
| 2026-04-26 22:54 | 13.78648 | -62.26079 | 25683 ft | 389 kts | 55° |
| 2026-04-26 22:55 | 13.80155 | -62.23780 | 25290 ft | 386 kts | 55° |
| 2026-04-26 22:55 | 13.81652 | -62.21494 | 24880 ft | 384 kts | 55° |
| 2026-04-26 22:55 | 13.82638 | -62.19989 | 24614 ft | 382 kts | 55° |
| 2026-04-26 22:55 | 13.84117 | -62.17729 | 24211 ft | 380 kts | 55° |
| 2026-04-26 22:56 | 13.86066 | -62.14751 | 23693 ft | 376 kts | 55° |
| 2026-04-26 22:56 | 13.87523 | -62.12525 | 23300 ft | 374 kts | 55° |
| 2026-04-26 22:56 | 13.88971 | -62.10312 | 22900 ft | 372 kts | 55° |
| 2026-04-26 22:56 | 13.89947 | -62.08819 | 22651 ft | 370 kts | 55° |
| 2026-04-26 22:57 | 13.91380 | -62.06627 | 22266 ft | 368 kts | 55° |
| 2026-04-26 22:57 | 13.92793 | -62.04466 | 21889 ft | 366 kts | 55° |
| 2026-04-26 22:57 | 13.94208 | -62.02301 | 21510 ft | 364 kts | 55° |
| 2026-04-26 22:57 | 13.95615 | -62.00147 | 21133 ft | 361 kts | 55° |
| 2026-04-26 22:58 | 13.97013 | -61.98007 | 20760 ft | 359 kts | 55° |
| 2026-04-26 22:58 | 13.98404 | -61.95877 | 20374 ft | 357 kts | 55° |
| 2026-04-26 22:58 | 13.99787 | -61.93758 | 20009 ft | 355 kts | 55° |
| 2026-04-26 22:58 | 14.01160 | -61.91655 | 19647 ft | 353 kts | 55° |
| 2026-04-26 22:59 | 14.02527 | -61.89559 | 19285 ft | 351 kts | 55° |
| 2026-04-26 22:59 | 14.03885 | -61.87478 | 18925 ft | 349 kts | 55° |
| 2026-04-26 22:59 | 14.05237 | -61.85405 | 18566 ft | 347 kts | 55° |
| 2026-04-26 22:59 | 14.06577 | -61.83349 | 18211 ft | 345 kts | 55° |
| 2026-04-26 23:00 | 14.07913 | -61.81299 | 17848 ft | 343 kts | 55° |
| 2026-04-26 23:00 | 14.09225 | -61.79286 | 17499 ft | 341 kts | 55° |
| 2026-04-26 23:00 | 14.10543 | -61.77262 | 17159 ft | 340 kts | 55° |
| 2026-04-26 23:00 | 14.11855 | -61.75248 | 16799 ft | 338 kts | 55° |
| 2026-04-26 23:01 | 14.13161 | -61.73242 | 16446 ft | 336 kts | 55° |
| 2026-04-26 23:01 | 14.14462 | -61.71244 | 16114 ft | 334 kts | 55° |
| 2026-04-26 23:01 | 14.15754 | -61.69259 | 15764 ft | 332 kts | 55° |
| 2026-04-26 23:01 | 14.17039 | -61.67285 | 15428 ft | 331 kts | 55° |
| 2026-04-26 23:02 | 14.18317 | -61.65321 | 15087 ft | 329 kts | 55° |
| 2026-04-26 23:02 | 14.19573 | -61.63388 | 15032 ft | 319 kts | 55° |
| 2026-04-26 23:02 | 14.20871 | -61.61562 | 14825 ft | 311 kts | 48° |
| 2026-04-26 23:02 | 14.22344 | -61.59986 | 14287 ft | 299 kts | 43° |
| 2026-04-26 23:03 | 14.23823 | -61.58548 | 13501 ft | 295 kts | 42° |
| 2026-04-26 23:03 | 14.25324 | -61.57107 | 12703 ft | 293 kts | 42° |
| 2026-04-26 23:03 | 14.26795 | -61.55682 | 11970 ft | 288 kts | 43° |
| 2026-04-26 23:03 | 14.28234 | -61.54271 | 11241 ft | 284 kts | 43° |
| 2026-04-26 23:04 | 14.29655 | -61.52867 | 10488 ft | 281 kts | 43° |
| 2026-04-26 23:04 | 14.31055 | -61.51474 | 9746 ft | 278 kts | 43° |
| 2026-04-26 23:04 | 14.32436 | -61.50094 | 9015 ft | 275 kts | 43° |
| 2026-04-26 23:04 | 14.33798 | -61.48729 | 8285 ft | 272 kts | 43° |
| 2026-04-26 23:05 | 14.35147 | -61.47375 | 7559 ft | 269 kts | 43° |
| 2026-04-26 23:05 | 14.36474 | -61.46041 | 6940 ft | 262 kts | 43° |
| 2026-04-26 23:05 | 14.37736 | -61.44770 | 6563 ft | 246 kts | 43° |
| 2026-04-26 23:05 | 14.38936 | -61.43561 | 6100 ft | 237 kts | 43° |
| 2026-04-26 23:06 | 14.40114 | -61.42376 | 5814 ft | 235 kts | 43° |
| 2026-04-26 23:06 | 14.41271 | -61.41211 | 5604 ft | 230 kts | 43° |
| 2026-04-26 23:06 | 14.42408 | -61.40065 | 5340 ft | 227 kts | 43° |
| 2026-04-26 23:06 | 14.43548 | -61.38917 | 4889 ft | 232 kts | 43° |
| 2026-04-26 23:07 | 14.44722 | -61.37734 | 4449 ft | 235 kts | 43° |
| 2026-04-26 23:07 | 14.45855 | -61.36591 | 4116 ft | 220 kts | 43° |
| 2026-04-26 23:07 | 14.46904 | -61.35532 | 3863 ft | 203 kts | 43° |
| 2026-04-26 23:07 | 14.47882 | -61.34545 | 3522 ft | 191 kts | 43° |
| 2026-04-26 23:08 | 14.48817 | -61.33601 | 3048 ft | 186 kts | 43° |
| 2026-04-26 23:08 | 14.49737 | -61.32674 | 2688 ft | 185 kts | 43° |
| 2026-04-26 23:08 | 14.50632 | -61.31771 | 2554 ft | 178 kts | 43° |
| 2026-04-26 23:08 | 14.51535 | -61.30861 | 2491 ft | 185 kts | 43° |
| 2026-04-26 23:09 | 14.52476 | -61.29912 | 2409 ft | 189 kts | 43° |
| 2026-04-26 23:09 | 14.53416 | -61.28963 | 2322 ft | 188 kts | 43° |
| 2026-04-26 23:09 | 14.54174 | -61.27905 | 2200 ft | 187 kts | 69° |
| 2026-04-26 23:09 | 14.54524 | -61.26617 | 2213 ft | 187 kts | 74° |
| 2026-04-26 23:10 | 14.54827 | -61.25300 | 2162 ft | 189 kts | 76° |
| 2026-04-26 23:10 | 14.55083 | -61.23972 | 2084 ft | 187 kts | 78° |
| 2026-04-26 23:10 | 14.55317 | -61.22654 | 2036 ft | 186 kts | 78° |
| 2026-04-26 23:10 | 14.55542 | -61.21341 | 2004 ft | 185 kts | 78° |
| 2026-04-26 23:11 | 14.55766 | -61.20026 | 2005 ft | 186 kts | 78° |
| 2026-04-26 23:11 | 14.55990 | -61.18703 | 2007 ft | 187 kts | 78° |
| 2026-04-26 23:11 | 14.56215 | -61.17375 | 2011 ft | 188 kts | 78° |
| 2026-04-26 23:11 | 14.56441 | -61.16042 | 2005 ft | 189 kts | 78° |
| 2026-04-26 23:12 | 14.56669 | -61.14701 | 2004 ft | 189 kts | 78° |
| 2026-04-26 23:12 | 14.56887 | -61.13411 | 1978 ft | 175 kts | 78° |
| 2026-04-26 23:12 | 14.57089 | -61.12219 | 1989 ft | 164 kts | 78° |
| 2026-04-26 23:12 | 14.57281 | -61.11089 | 1793 ft | 154 kts | 78° |
| 2026-04-26 23:13 | 14.57461 | -61.10026 | 1621 ft | 150 kts | 78° |
| 2026-04-26 23:13 | 14.57641 | -61.08967 | 1412 ft | 149 kts | 78° |
| 2026-04-26 23:13 | 14.57819 | -61.07917 | 1206 ft | 148 kts | 78° |
| 2026-04-26 23:13 | 14.57994 | -61.06886 | 1008 ft | 147 kts | 78° |
| 2026-04-26 23:14 | 14.58173 | -61.05832 | 813 ft | 147 kts | 78° |
| 2026-04-26 23:14 | 14.58349 | -61.04791 | 628 ft | 148 kts | 78° |
| 2026-04-26 23:14 | 14.58523 | -61.03760 | 425 ft | 147 kts | 79° |
| 2026-04-26 23:14 | 14.58699 | -61.02722 | 240 ft | 146 kts | 78° |
| 2026-04-26 23:15 | 14.58874 | -61.01683 | 40 ft | 147 kts | 79° |
| 2026-04-26 23:15 | 14.59034 | -61.00746 | 31 ft | 109 kts | 80° |
| 2026-04-26 23:15 | 14.59130 | -61.00185 | 24 ft | 39 kts | 80° |
| 2026-04-26 23:15 | 14.59151 | -61.00064 | 24 ft | 10 kts | 79° |
| 2026-04-26 23:16 | 14.59175 | -61.00025 | 26 ft | 6 kts | 26° |
| 2026-04-26 23:16 | 14.59220 | -61.00027 | 28 ft | 7 kts | 351° |
| 2026-04-26 23:16 | 14.59232 | -61.00029 | 24 ft | 0 kts | 350° |
| 2026-04-26 23:17 | 14.59236 | -61.00030 | 24 ft | 1 kts | 350° |
| 2026-04-26 23:17 | 14.59246 | -61.00032 | 24 ft | 2 kts | 350° |
| 2026-04-26 23:18 | 14.59261 | -61.00034 | 27 ft | 3 kts | 350° |
| 2026-04-26 23:18 | 14.59292 | -61.00040 | 25 ft | 6 kts | 350° |
| 2026-04-26 23:18 | 14.59294 | -61.00040 | 24 ft | 1 kts | 350° |
| 2026-04-26 23:18 | 14.59334 | -61.00049 | 25 ft | 8 kts | 340° |
| 2026-04-26 23:19 | 14.59375 | -61.00092 | 28 ft | 9 kts | 299° |
| 2026-04-26 23:19 | 14.59387 | -61.00116 | 23 ft | 3 kts | 297° |
| 2026-04-26 23:19 | 14.59401 | -61.00135 | 24 ft | 4 kts | 327° |
| 2026-04-26 23:19 | 14.59432 | -61.00129 | 24 ft | 5 kts | 20° |
| 2026-04-26 23:20 | 14.59456 | -61.00116 | 25 ft | 1 kts | 30° |
| 2026-04-26 23:20 | 14.59466 | -61.00110 | 25 ft | 1 kts | 31° |
| 2026-04-26 23:20 | 14.59471 | -61.00106 | 25 ft | 0 kts | 31° |
| 2026-04-26 23:21 | 14.59474 | -61.00104 | 23 ft | 0 kts | 31° |
| 2026-04-26 23:21 | 14.59477 | -61.00103 | 23 ft | 0 kts | 31° |
| 2026-04-26 23:21 | 14.59477 | -61.00102 | 26 ft | 0 kts | 31° |